Database: COMPET-N - COOP - 3PL - 4PL - CNDOOM

WAD: Doom | Doom 2 | TNT | Plutonia | AV | HR | Scythe | MM | MM2 | Requiem | CE
Category: speed | nmare | max | nm100s | tyson | pacifist | fast | respawn | nomo | misc | built | all
Highscore: ALL | IWAD | PWAD | Country | Continent

Remove: wad | map | category | player | all
MapPlayerTimeDateFilenameCommentsDL
MAP04: The FocusZvonimir Bužanić1:13.001999-09-16re04-113.zip - 134
MAP03: The GantletZvonimir Bužanić1:29.002000-09-05re03-129.zip - 127
MAP03: The GantletZvonimir Bužanić1:34.001999-09-25re03-134.zip - 122
MAP14: The Inmost DensZvonimir Bužanić1:43.002000-03-19re14-143.zip - 85
MAP14: The Inmost DensZvonimir Bužanić1:46.001999-10-16re14-146.zip - 88
MAP25: BloodfallsZvonimir Bužanić1:49.001999-09-23re25-149.zip - 102
MAP14: The Inmost DensZvonimir Bužanić1:50.001999-10-01re14-150.zip - 78
MAP14: The Inmost DensZvonimir Bužanić1:54.001999-09-30re14-154.zip - 72
MAP14: The Inmost DensZvonimir Bužanić1:57.001999-09-30re14-157.zip - 96
MAP14: The Inmost DensZvonimir Bužanić2:00.001999-09-30re14-200.zip - 79
MAP14: The Inmost DensZvonimir Bužanić2:02.001999-09-23re14-202.zip - 65
E4M3: Sever The WickedZvonimir Bužanić2:08.002000-06-20r4m3-208.zip - 129
MAP28: The Spirit WorldZvonimir Bužanić2:25.002000-11-24re28-225.zip - 100
MAP06: The CrusherZvonimir Bužanić2:26.002012-10-19re06-226.zip - 225
MAP06: The CrusherZvonimir Bužanić2:31.001999-09-16re06-231.zip - 125
MAP05: The Waste TunnelsZvonimir Bužanić2:36.002000-09-05re05-236.zip - 120
MAP28: The Spirit WorldZvonimir Bužanić2:38.001999-09-20re28-238.zip - 105
MAP26: The Abandoned MinesZvonimir Bužanić2:39.002000-12-01re26-239.zip - 101
MAP06: The CrusherZvonimir Bužanić2:46.001999-07-31re06-246.zip - 125
E1M8: Phobos AnomalyZvonimir Bužanić2:49.002013-04-26r1m8-249.zip - 178
MAP26: The Abandoned MinesZvonimir Bužanić2:50.001999-09-16re26-250.zip - 89
MAP05: The Waste TunnelsZvonimir Bužanić2:51.001999-08-04re05-251.zip - 116
MAP27: Monster CondoZvonimir Bužanić3:28.001999-09-23re27-328.zip - 86
MAP10: Refueling BaseZvonimir Bužanić3:39.002000-09-05re10-339.zip - 106
MAP29: The Living EndZvonimir Bužanić3:50.001999-10-17re29-350.zip - 109
MAP13: DowntownZvonimir Bužanić3:59.002000-09-17re13-359.zip - 99
MAP10: Refueling BaseZvonimir Bužanić4:10.001998-08-06re10-410.zip - 331
MAP13: DowntownZvonimir Bužanić4:10.001999-10-22re13-410.zip - 81
MAP29: The Living EndZvonimir Bužanić4:14.001999-09-25re29-414.zip - 82
MAP17: TenementsZvonimir Bužanić4:16.001999-09-25re17-416.zip - 114
MAP12: The FactoryZvonimir Bužanić4:24.001999-09-22re12-424.zip - 95
MAP22: HabitatZvonimir Bužanić4:38.002013-02-04er22-438.zip - 177
MAP13: DowntownZvonimir Bužanić4:54.001999-07-18re13-454.zip - 90
MAP06: The PowerstationZvonimir Bužanić5:07.002004-04-12mm06r507.zip - 92
MAP15: Industrial ZoneZvonimir Bužanić5:23.001999-09-23re15-523.zip - 107
MAP03: Poison ProcessingZvonimir Bužanić6:14.002014-08-31rr03-614.zip - 690
Remove: wad | map | category | player | all